Terminal Aerodrome Forecast
Issued by NWS Bismarck, ND

Home | Current Version | Previous Version | Graphics & Text | Print | Product List | Glossary On
Versions: 1 2 3 4 5 6 7 8 9 10 11 12 13 14 15 16 17 18 19 20 21
000
FTUS43 KBIS 251100
TAFBIS
TAF
KBIS 251127Z 2512/2612 32018G26KT P6SM SCT018 OVC025
      TEMPO 2516/2518 SCT025 SCT035
     FM251800 33019G27KT P6SM SCT045
     FM260200 32007KT P6SM SCT060=

USA.gov is the U.S. government's official web portal to all federal, state and local government web resources and services.